Time;durP1;ratioP1;P1;durP2;ratioP2;P2;SDS_P1;SDS_P2;PMS_P1;PMS_P2;Temp;Humidity;BMP_temperature;BMP_pressure;BME280_temperature;BME280_humidity;BME280_pressure;Samples;Min_cycle;Max_cycle;Signal;HPM_P1;HPM_P2
2022/04/22 00:01:56;;;;;;;70.32;31.52;;;;;;;3.88;76.87;101123.37;1757945;81;20889;-80
2022/04/22 00:04:22;;;;;;;47.50;21.40;;;;;;;3.86;77.21;101125.59;1758453;80;21187;-81
2022/04/22 00:06:50;;;;;;;33.80;18.92;;;;;;;3.87;77.38;101124.72;1758152;81;20999;-79
2022/04/22 00:09:17;;;;;;;28.05;16.17;;;;;;;3.88;77.68;101114.28;1758255;81;20892;-80
2022/04/22 00:11:44;;;;;;;22.95;16.30;;;;;;;3.92;77.86;101115.92;1758012;80;20900;-79
2022/04/22 00:14:12;;;;;;;19.65;14.53;;;;;;;3.97;77.85;101119.70;1758022;81;20896;-79
2022/04/22 00:16:38;;;;;;;21.70;15.25;;;;;;;4.00;78.08;101120.06;1757978;81;21157;-81
2022/04/22 00:19:06;;;;;;;28.12;16.35;;;;;;;4.02;78.35;101112.64;1757986;80;20888;-79
2022/04/22 00:21:34;;;;;;;24.72;16.10;;;;;;;4.03;78.32;101107.03;1757996;81;20935;-80
2022/04/22 00:24:01;;;;;;;16.97;13.93;;;;;;;4.04;78.11;101107.42;1758026;81;20967;-80
2022/04/22 00:26:30;;;;;;;22.45;14.43;;;;;;;4.06;78.08;101105.19;1758110;80;20944;-80
2022/04/22 00:28:56;;;;;;;18.25;14.35;;;;;;;4.08;78.05;101096.92;1758163;80;21206;-80
2022/04/22 00:31:24;;;;;;;22.37;14.07;;;;;;;4.09;77.84;101097.34;1758032;81;20931;-80
2022/04/22 00:33:51;;;;;;;17.45;13.48;;;;;;;4.09;77.91;101093.88;1758782;80;20975;-79
2022/04/22 00:36:19;;;;;;;16.40;13.90;;;;;;;4.11;77.95;101095.98;1758161;80;21416;-81
2022/04/22 00:38:45;;;;;;;17.75;12.65;;;;;;;4.10;78.12;101088.66;1758324;81;20884;-79
2022/04/22 00:41:13;;;;;;;24.20;15.23;;;;;;;4.12;78.32;101092.06;1759065;81;20864;-78
2022/04/22 00:43:45;;;;;;;18.80;14.15;;;;;;;4.13;78.55;101087.27;1760934;78;20948;-79
2022/04/22 00:46:13;;;;;;;17.82;15.28;;;;;;;4.17;78.25;101085.91;1760076;80;20896;-77
2022/04/22 00:48:40;;;;;;;18.15;14.15;;;;;;;4.18;77.94;101089.77;1759651;80;20972;-80
2022/04/22 00:51:09;;;;;;;16.85;13.43;;;;;;;4.17;77.85;101087.20;1758088;81;20987;-79
2022/04/22 00:53:39;;;;;;;18.85;13.95;;;;;;;4.11;77.95;101090.38;1758806;80;21150;-79
2022/04/22 00:56:08;;;;;;;27.22;16.48;;;;;;;4.08;78.25;101093.48;1789676;80;20891;-79
2022/04/22 00:58:36;;;;;;;23.42;15.72;;;;;;;4.06;78.19;101102.59;1790067;80;20923;-80
2022/04/22 01:01:03;;;;;;;25.97;15.88;;;;;;;4.00;77.66;101099.30;1789775;78;20978;-80
2022/04/22 01:03:31;;;;;;;19.10;14.43;;;;;;;3.96;77.84;101099.84;1789781;80;20907;-79
2022/04/22 01:11:32;;;;;;;18.30;13.80;;;;;;;3.82;78.39;101107.94;1789664;78;20090;-79
2022/04/22 01:13:59;;;;;;;22.22;14.73;;;;;;;3.79;79.10;101108.03;1763347;80;20966;-80
2022/04/22 01:16:26;;;;;;;24.18;16.00;;;;;;;3.81;79.42;101113.19;1789703;78;20872;-81
2022/04/22 01:18:53;;;;;;;23.67;17.45;;;;;;;3.80;79.19;101116.66;1790474;80;21381;-80
2022/04/22 01:21:21;;;;;;;26.37;16.95;;;;;;;3.78;78.82;101113.23;1789714;80;21457;-80
2022/04/22 01:23:48;;;;;;;23.87;15.80;;;;;;;3.76;78.61;101109.83;1789660;78;21024;-80
2022/04/22 01:26:15;;;;;;;25.37;18.30;;;;;;;3.73;78.45;101107.74;1789973;80;20883;-80
2022/04/22 01:28:43;;;;;;;26.87;18.82;;;;;;;3.72;78.22;101109.06;1789687;79;20930;-80
2022/04/22 01:31:09;;;;;;;23.85;16.32;;;;;;;3.67;77.85;101107.88;1789757;80;21132;-80
2022/04/22 01:33:37;;;;;;;29.63;18.05;;;;;;;3.59;77.60;101108.50;1789590;80;20903;-80
2022/04/22 01:36:05;;;;;;;21.68;16.00;;;;;;;3.53;77.69;101112.10;1789761;80;20883;-80
2022/04/22 01:38:33;;;;;;;21.25;16.57;;;;;;;3.49;77.75;101108.28;1789659;80;20892;-79
2022/04/22 01:41:00;;;;;;;24.02;18.23;;;;;;;3.47;78.18;101105.75;1789788;80;20954;-80
2022/04/22 01:43:28;;;;;;;23.87;17.90;;;;;;;3.46;78.44;101103.19;1789719;80;20943;-79
2022/04/22 01:45:56;;;;;;;22.60;15.93;;;;;;;3.46;78.76;101100.14;1784105;79;21013;-80
2022/04/22 01:48:25;;;;;;;22.48;15.88;;;;;;;3.49;78.95;101100.51;1780851;80;20875;-81
2022/04/22 01:50:52;;;;;;;18.60;14.43;;;;;;;3.51;79.01;101101.33;1780691;80;20892;-80
2022/04/22 01:53:20;;;;;;;23.12;16.85;;;;;;;3.52;78.88;101099.16;1780850;80;20915;-81
2022/04/22 01:55:46;;;;;;;18.70;14.28;;;;;;;3.52;78.57;101098.71;1781207;80;21147;-80
2022/04/22 01:58:14;;;;;;;18.12;14.98;;;;;;;3.50;78.54;101103.08;1780763;80;20899;-80
2022/04/22 02:00:41;;;;;;;19.30;13.75;;;;;;;3.50;78.49;101103.53;1780818;80;21405;-80
2022/04/22 02:03:09;;;;;;;20.48;14.63;;;;;;;3.49;78.53;101108.28;1780839;80;20983;-81
2022/04/22 02:05:36;;;;;;;15.63;12.55;;;;;;;3.48;78.66;101103.55;1780763;79;21353;-80
2022/04/22 02:08:05;;;;;;;21.15;15.18;;;;;;;3.49;78.77;101102.68;1780782;80;20915;-80
2022/04/22 02:10:33;;;;;;;23.95;13.95;;;;;;;3.49;78.86;101107.87;1780713;80;21436;-81
2022/04/22 02:13:01;;;;;;;14.75;11.08;;;;;;;3.50;79.21;101111.30;1780831;80;20947;-79
2022/04/22 02:15:28;;;;;;;17.32;12.93;;;;;;;3.51;79.65;101112.58;1780732;79;20919;-80
2022/04/22 02:17:56;;;;;;;17.12;11.90;;;;;;;3.55;79.95;101119.83;1780855;80;21394;-80
2022/04/22 02:20:22;;;;;;;17.05;11.95;;;;;;;3.58;80.04;101121.06;1780936;79;21062;-80
2022/04/22 02:22:51;;;;;;;18.17;12.07;;;;;;;3.62;80.21;101130.45;1780655;80;20868;-79
2022/04/22 02:25:18;;;;;;;14.13;11.40;;;;;;;3.64;80.31;101130.43;1780772;80;21033;-79
2022/04/22 02:30:32;;;;;;;12.75;10.18;;;;;;;3.69;80.31;101129.87;1780749;80;20939;-79
2022/04/22 02:32:59;;;;;;;15.75;9.85;;;;;;;3.68;80.28;101131.62;1780851;80;21319;-82
2022/04/22 02:35:28;;;;;;;15.70;10.28;;;;;;;3.70;80.28;101131.14;1780779;79;21369;-81
2022/04/22 02:37:55;;;;;;;18.55;12.73;;;;;;;3.70;80.32;101133.73;1780741;80;20899;-82
2022/04/22 02:45:56;;;;;;;15.48;12.28;;;;;;;3.79;80.51;101143.05;1784154;80;20892;-79
2022/04/22 02:48:22;;;;;;;13.90;10.25;;;;;;;3.80;80.29;101145.19;1786664;80;21420;-80
2022/04/22 02:50:50;;;;;;;10.60;9.05;;;;;;;3.77;80.32;101147.87;1786625;80;20954;-80
2022/04/22 02:53:18;;;;;;;16.95;12.50;;;;;;;3.77;80.63;101150.01;1786576;79;20892;-81
2022/04/22 02:55:48;;;;;;;15.80;10.88;;;;;;;3.77;80.66;101155.65;1786646;80;20903;-81
2022/04/22 02:58:15;;;;;;;15.28;11.30;;;;;;;3.79;81.02;101152.58;1786867;80;21192;-81
2022/04/22 03:00:43;;;;;;;14.10;10.88;;;;;;;3.86;81.06;101152.38;1786482;80;20931;-80
2022/04/22 03:03:10;;;;;;;19.77;12.63;;;;;;;3.92;80.60;101156.59;1786953;80;21030;-81
2022/04/22 03:05:38;;;;;;;16.60;12.35;;;;;;;3.95;80.16;101156.05;1786555;80;20927;-82
2022/04/22 03:08:06;;;;;;;16.95;13.35;;;;;;;4.00;79.79;101163.72;1786614;80;20868;-80
2022/04/22 03:10:34;;;;;;;15.65;12.20;;;;;;;4.00;79.51;101161.12;1786596;80;20872;-80
2022/04/22 03:13:03;;;;;;;14.83;11.85;;;;;;;4.00;79.37;101164.17;1786517;80;20927;-81
2022/04/22 03:15:33;;;;;;;16.23;11.80;;;;;;;3.95;79.39;101165.13;1786599;79;20891;-82
2022/04/22 03:18:00;;;;;;;17.62;12.73;;;;;;;3.97;79.77;101166.41;1787071;79;20923;-80
2022/04/22 03:20:27;;;;;;;16.00;11.83;;;;;;;4.00;80.00;101168.91;1786947;80;20899;-80
2022/04/22 03:22:54;;;;;;;16.60;12.53;;;;;;;4.05;80.00;101172.27;1786554;79;21087;-79
2022/04/22 03:25:22;;;;;;;16.45;11.53;;;;;;;4.09;79.85;101175.20;1786749;80;21428;-81
2022/04/22 03:27:51;;;;;;;15.45;11.10;;;;;;;4.17;79.75;101168.97;1786532;80;20895;-80
2022/04/22 03:30:18;;;;;;;14.35;12.75;;;;;;;4.19;79.46;101170.63;1787234;80;20962;-79
2022/04/22 03:32:44;;;;;;;22.85;12.30;;;;;;;4.22;79.33;101169.25;1786722;80;20895;-81
2022/04/22 03:35:11;;;;;;;14.35;11.68;;;;;;;4.29;79.46;101173.84;1786962;80;21443;-81
2022/04/22 03:37:41;;;;;;;22.15;12.80;;;;;;;4.36;79.34;101178.86;1786614;79;20856;-81
2022/04/22 03:40:10;;;;;;;22.48;16.02;;;;;;;4.41;78.76;101184.39;1786767;80;20967;-79
2022/04/22 03:42:37;;;;;;;25.70;16.48;;;;;;;4.45;78.74;101184.27;1786618;80;21453;-80
2022/04/22 03:45:05;;;;;;;28.40;19.90;;;;;;;4.53;78.98;101181.45;1786724;80;20864;-81
2022/04/22 03:47:33;;;;;;;27.87;18.57;;;;;;;4.68;79.12;101177.62;1789719;80;20907;-80
2022/04/22 03:50:01;;;;;;;36.28;20.10;;;;;;;4.89;79.28;101178.34;1789644;78;20927;-80
2022/04/22 03:52:29;;;;;;;28.00;17.77;;;;;;;5.13;79.26;101181.14;1789588;78;20997;-80
2022/04/22 03:54:57;;;;;;;26.12;16.32;;;;;;;5.41;79.25;101182.50;1789569;80;20915;-80
2022/04/22 03:59:49;;;;;;;30.85;17.37;;;;;;;5.95;78.65;101178.28;1797885;79;22179;-81
2022/04/22 04:02:17;;;;;;;27.48;17.15;;;;;;;6.13;78.34;101178.14;1758262;80;20936;-79
2022/04/22 04:04:45;;;;;;;22.32;16.20;;;;;;;6.36;77.77;101178.25;1758385;80;20975;-81
2022/04/22 04:07:11;;;;;;;29.45;18.65;;;;;;;6.65;77.73;101177.71;1758598;81;20924;-81
2022/04/22 04:17:56;;;;;;;11.75;9.75;;;;;;;7.83;75.47;101184.22;1758376;80;21405;-81
2022/04/22 04:23:15;;;;;;;16.12;9.75;;;;;;;8.21;74.39;101182.67;1758555;81;20971;-83
2022/04/22 04:25:43;;;;;;;10.68;7.62;;;;;;;8.36;73.86;101185.12;1758538;80;20928;-82
2022/04/22 04:28:11;;;;;;;11.53;7.83;;;;;;;8.50;73.30;101180.64;1758310;80;20876;-82
2022/04/22 04:30:43;;;;;;;11.12;8.25;;;;;;;8.71;73.06;101176.25;1758302;80;21186;-80
2022/04/22 04:33:10;;;;;;;10.23;7.87;;;;;;;9.01;72.63;101182.37;1758193;80;20892;-81
2022/04/22 04:35:38;;;;;;;10.10;7.00;;;;;;;9.33;71.87;101180.91;1758293;81;21425;-81
2022/04/22 04:38:06;;;;;;;7.53;6.53;;;;;;;9.59;70.95;101178.87;1758514;81;21063;-80
2022/04/22 04:40:34;;;;;;;10.82;6.80;;;;;;;9.84;70.37;101185.09;1758422;80;20879;-81
2022/04/22 04:43:01;;;;;;;6.87;6.00;;;;;;;10.19;69.89;101189.09;1758217;80;21124;-82
2022/04/22 04:45:29;;;;;;;7.50;6.17;;;;;;;10.50;68.71;101193.22;1758876;80;20845;-81
2022/04/22 04:47:58;;;;;;;8.63;5.50;;;;;;;10.81;67.69;101200.84;1759108;80;21409;-81
2022/04/22 04:50:27;;;;;;;7.95;6.30;;;;;;;11.14;66.61;101197.39;1758254;81;20968;-81
2022/04/22 04:52:53;;;;;;;7.15;6.00;;;;;;;11.57;65.57;101200.31;1758688;80;21073;-81
2022/04/22 04:55:21;;;;;;;7.05;5.60;;;;;;;11.98;63.78;101201.99;1758359;81;21358;-82
2022/04/22 04:57:50;;;;;;;9.75;6.58;;;;;;;12.38;62.33;101200.16;1758215;80;21502;-79
2022/04/22 05:00:18;;;;;;;8.93;8.00;;;;;;;12.82;61.65;101209.36;1758621;80;20974;-81
2022/04/22 05:02:47;;;;;;;9.65;7.28;;;;;;;13.33;60.51;101202.36;1758530;81;20924;-83
2022/04/22 05:05:14;;;;;;;8.33;7.03;;;;;;;13.83;59.30;101200.95;1759042;81;21030;-81
2022/04/22 05:07:55;;;;;;;7.90;5.92;;;;;;;14.30;58.53;101207.55;1758719;81;21248;-80
2022/04/22 05:10:21;;;;;;;6.50;5.90;;;;;;;14.74;57.71;101205.56;1758350;81;20924;-82
2022/04/22 05:12:48;;;;;;;7.53;5.47;;;;;;;15.22;56.31;101200.94;1758177;81;20983;-81
2022/04/22 05:15:17;;;;;;;7.53;6.17;;;;;;;15.60;54.73;101202.17;1758397;81;20955;-80
2022/04/22 05:17:46;;;;;;;5.55;5.15;;;;;;;15.94;53.57;101205.03;1758997;81;20980;-80
2022/04/22 05:20:15;;;;;;;6.20;5.70;;;;;;;16.18;52.11;101211.64;1758673;81;21126;-82
2022/04/22 05:22:44;;;;;;;5.62;5.12;;;;;;;16.40;51.35;101210.05;1759085;81;20991;-83
2022/04/22 05:25:13;;;;;;;5.62;5.10;;;;;;;16.65;50.26;101209.91;1758625;81;20834;-83
2022/04/22 05:27:41;;;;;;;5.33;4.90;;;;;;;16.83;49.24;101210.33;1759096;81;20904;-81
2022/04/22 05:32:54;;;;;;;5.70;5.20;;;;;;;17.36;48.21;101211.05;1760483;81;21211;-80
2022/04/22 05:35:27;;;;;;;4.92;4.53;;;;;;;17.59;46.77;101203.44;1759770;81;20885;-79
2022/04/22 05:37:55;;;;;;;6.55;5.70;;;;;;;17.75;46.69;101204.38;1758876;80;21310;-81
2022/04/22 05:40:28;;;;;;;5.78;5.28;;;;;;;18.00;46.85;101201.08;1758356;81;20900;-82
2022/04/22 05:42:55;;;;;;;6.90;6.30;;;;;;;18.35;46.66;101205.28;1759226;81;20920;-81
2022/04/22 05:45:23;;;;;;;7.25;5.17;;;;;;;18.59;44.92;101204.55;1741340;81;21252;-81
2022/04/22 05:50:53;;;;;;;5.30;4.65;;;;;;;18.96;44.43;101214.70;1706425;78;20963;-80
2022/04/22 05:53:20;;;;;;;5.08;4.67;;;;;;;19.17;43.81;101220.00;1705731;83;20967;-80
2022/04/22 05:55:48;;;;;;;6.30;4.58;;;;;;;19.32;42.87;101216.97;1705851;83;20963;-80
2022/04/22 05:58:14;;;;;;;4.97;4.58;;;;;;;19.38;42.27;101221.26;1706181;83;21158;-80
2022/04/22 06:00:45;;;;;;;5.10;4.50;;;;;;;19.41;41.96;101225.00;1705825;83;20935;-81
2022/04/22 06:03:13;;;;;;;5.30;4.80;;;;;;;19.44;41.83;101225.22;1707859;83;20927;-81
2022/04/22 06:05:41;;;;;;;5.50;4.92;;;;;;;19.42;41.53;101230.66;1707555;83;20967;-83
2022/04/22 06:10:55;;;;;;;5.12;4.72;;;;;;;19.34;41.08;101234.50;1708768;82;20900;-83
2022/04/22 06:13:22;;;;;;;6.00;5.50;;;;;;;19.24;41.64;101234.94;1706272;83;20916;-81
2022/04/22 06:15:48;;;;;;;5.85;5.42;;;;;;;19.20;41.99;101238.83;1705748;83;21495;-81
2022/04/22 06:18:15;;;;;;;6.47;5.20;;;;;;;19.34;42.32;101234.50;1706185;83;20955;-82
2022/04/22 06:20:43;;;;;;;5.45;4.95;;;;;;;19.54;41.83;101238.53;1705656;83;20904;-81
2022/04/22 06:28:57;;;;;;;6.40;5.75;;;;;;;19.64;41.21;101247.41;1736056;81;20904;-81
2022/04/22 06:31:25;;;;;;;7.53;6.83;;;;;;;19.58;41.20;101255.92;1739848;82;20933;-81
2022/04/22 06:33:52;;;;;;;6.67;6.08;;;;;;;19.49;41.03;101256.73;1739772;82;20996;-80
2022/04/22 06:36:19;;;;;;;6.70;6.10;;;;;;;19.36;41.00;101252.47;1739758;82;21184;-81
2022/04/22 06:38:47;;;;;;;5.72;5.33;;;;;;;19.34;41.38;101254.45;1739732;82;20937;-81
2022/04/22 06:46:47;;;;;;;6.28;5.78;;;;;;;20.04;41.72;101257.19;1739891;81;21019;-83
2022/04/22 06:49:16;;;;;;;4.67;4.30;;;;;;;20.34;40.85;101244.22;1739699;82;21030;-82
2022/04/22 06:51:43;;;;;;;5.85;5.45;;;;;;;20.64;40.57;101241.09;1739845;82;20957;-82
2022/04/22 06:54:12;;;;;;;5.80;5.30;;;;;;;20.88;39.31;101245.97;1739690;82;20905;-83
2022/04/22 06:56:40;;;;;;;4.97;4.58;;;;;;;20.93;39.55;101243.70;1739626;81;20932;-83
2022/04/22 06:59:08;;;;;;;4.92;4.53;;;;;;;21.13;39.88;101237.81;1739574;81;21385;-81
2022/04/22 07:01:36;;;;;;;4.37;4.03;;;;;;;21.41;38.14;101241.86;1739869;81;21201;-87
2022/04/22 07:04:03;;;;;;;5.83;4.25;;;;;;;21.56;38.16;101237.72;1739905;81;20917;-81
2022/04/22 07:06:31;;;;;;;4.80;3.92;;;;;;;21.72;37.60;101237.93;1740079;82;20944;-81
2022/04/22 07:08:59;;;;;;;5.83;5.35;;;;;;;22.01;37.24;101240.05;1742288;82;21011;-80
2022/04/22 07:11:27;;;;;;;4.78;4.47;;;;;;;22.34;36.61;101239.41;1742188;81;20907;-82
2022/04/22 07:13:59;;;;;;;6.05;4.35;;;;;;;22.64;35.93;101240.48;1740718;81;21330;-82
2022/04/22 07:16:28;;;;;;;4.00;3.70;;;;;;;22.85;35.38;101236.09;1740358;81;20889;-81
2022/04/22 07:18:57;;;;;;;8.20;7.40;;;;;;;22.91;35.05;101241.66;1739912;81;20990;-79
2022/04/22 07:21:26;;;;;;;4.58;4.10;;;;;;;23.06;34.66;101238.45;1739900;81;21370;-80
2022/04/22 07:23:55;;;;;;;4.03;3.72;;;;;;;23.02;34.19;101237.91;1740473;81;21350;-81
2022/04/22 07:26:23;;;;;;;4.08;3.75;;;;;;;23.07;34.88;101238.27;1740311;82;21873;-82
2022/04/22 07:28:51;;;;;;;4.12;3.80;;;;;;;23.22;33.82;101240.37;1739730;81;20948;-82
2022/04/22 07:31:20;;;;;;;6.22;3.85;;;;;;;23.38;33.36;101242.60;1739925;81;20924;-81
2022/04/22 07:33:49;;;;;;;3.62;3.42;;;;;;;23.44;32.86;101244.32;1740078;82;20905;-84
2022/04/22 07:36:15;;;;;;;3.65;3.45;;;;;;;23.45;32.90;101232.09;1740102;81;20931;-81
2022/04/22 07:38:44;;;;;;;3.67;3.47;;;;;;;23.48;32.05;101240.33;1740363;81;21111;-82
2022/04/22 07:41:12;;;;;;;4.67;4.28;;;;;;;23.41;32.11;101239.27;1740016;81;21027;-81
2022/04/22 07:49:11;;;;;;;4.30;4.00;;;;;;;23.25;33.02;101242.72;1740133;81;20992;-83
2022/04/22 07:51:40;;;;;;;4.42;4.12;;;;;;;23.43;32.99;101244.80;1740193;81;20999;-80
2022/04/22 07:54:14;;;;;;;3.67;3.47;;;;;;;23.71;32.94;101231.19;1739919;81;20996;-82
2022/04/22 07:56:44;;;;;;;4.10;3.58;;;;;;;23.85;32.24;101239.95;1740359;81;20952;-82
2022/04/22 07:59:11;;;;;;;3.40;2.95;;;;;;;23.86;32.11;101240.81;1740829;81;20956;-81
2022/04/22 08:01:39;;;;;;;2.85;2.65;;;;;;;23.81;31.42;101237.77;1740060;82;20964;-84
2022/04/22 08:04:09;;;;;;;3.75;3.55;;;;;;;23.58;31.23;101235.16;1740187;81;21156;-84
2022/04/22 08:06:35;;;;;;;3.27;2.98;;;;;;;23.51;31.30;101241.33;1739926;81;20929;-83
2022/04/22 08:09:02;;;;;;;2.83;2.58;;;;;;;23.47;31.42;101239.97;1740394;82;20948;-81
2022/04/22 08:11:30;;;;;;;2.77;2.58;;;;;;;23.29;30.81;101236.87;1740004;81;20928;-82
2022/04/22 08:13:59;;;;;;;6.60;3.58;;;;;;;23.11;31.32;101238.80;1740077;82;20885;-82
2022/04/22 08:16:26;;;;;;;3.00;2.70;;;;;;;23.03;31.95;101228.88;1740263;82;21768;-81
2022/04/22 08:18:54;;;;;;;3.27;2.98;;;;;;;22.99;32.36;101236.87;1740069;81;20940;-81
2022/04/22 08:21:22;;;;;;;4.17;2.55;;;;;;;23.13;32.16;101228.78;1740171;81;20996;-82
2022/04/22 08:23:49;;;;;;;3.00;2.80;;;;;;;23.14;31.42;101225.95;1740024;81;21034;-81
2022/04/22 08:26:19;;;;;;;2.98;2.67;;;;;;;23.24;31.90;101231.69;1739896;81;20896;-79
2022/04/22 08:28:46;;;;;;;3.17;2.90;;;;;;;23.37;31.32;101228.89;1733765;81;21272;-81
2022/04/22 08:31:14;;;;;;;3.50;3.20;;;;;;;23.47;31.65;101231.94;1730120;82;21410;-81
2022/04/22 08:33:45;;;;;;;5.78;2.25;;;;;;;23.73;31.67;101223.32;1729967;81;20953;-81
2022/04/22 08:36:12;;;;;;;2.75;2.55;;;;;;;23.91;29.49;101218.38;1729937;81;20956;-83
2022/04/22 08:38:41;;;;;;;4.67;3.00;;;;;;;23.98;30.91;101222.89;1730108;83;21441;-83
2022/04/22 08:41:08;;;;;;;3.20;3.00;;;;;;;23.85;30.04;101216.34;1732639;81;21833;-80
2022/04/22 08:43:34;;;;;;;2.75;2.58;;;;;;;23.86;30.58;101215.36;1732354;81;20932;-78
2022/04/22 08:46:01;;;;;;;8.90;2.35;;;;;;;23.86;30.93;101221.55;1730625;81;20917;-82
2022/04/22 08:51:15;;;;;;;5.28;2.85;;;;;;;24.05;30.78;101216.37;1709862;83;20928;-82
2022/04/22 08:53:43;;;;;;;2.70;2.50;;;;;;;24.04;30.06;101216.05;1730206;81;21239;-85
2022/04/22 08:56:11;;;;;;;2.77;2.58;;;;;;;23.97;30.26;101217.72;1730249;82;20992;-85
2022/04/22 08:58:38;;;;;;;3.98;3.05;;;;;;;23.96;31.39;101224.89;1705547;83;21589;-82
2022/04/22 09:01:07;;;;;;;3.95;2.37;;;;;;;23.99;30.53;101223.25;1705847;81;21398;-81
2022/04/22 09:03:33;;;;;;;2.55;2.35;;;;;;;24.09;30.60;101221.73;1730612;81;20908;-81
2022/04/22 09:06:02;;;;;;;4.12;2.45;;;;;;;24.25;30.23;101216.89;1730172;81;20984;-83
2022/04/22 09:08:29;;;;;;;3.95;2.80;;;;;;;24.38;29.64;101221.25;1729906;81;21027;-82
2022/04/22 09:11:00;;;;;;;3.35;2.62;;;;;;;24.33;29.02;101224.11;1730012;81;20917;-83
2022/04/22 09:13:31;;;;;;;2.22;2.12;;;;;;;24.04;28.62;101221.92;1730001;81;21089;-80
2022/04/22 09:15:59;;;;;;;2.12;2.02;;;;;;;23.77;29.62;101224.70;1730186;81;21030;-81
2022/04/22 09:18:27;;;;;;;2.08;1.90;;;;;;;23.70;29.05;101231.70;1730269;81;20916;-82
2022/04/22 09:21:02;;;;;;;2.50;2.30;;;;;;;23.55;28.87;101222.09;1730038;81;21459;-83
2022/04/22 09:23:35;;;;;;;3.52;2.58;;;;;;;23.44;29.37;101229.59;1730397;81;20901;-83
2022/04/22 09:26:04;;;;;;;2.00;1.80;;;;;;;23.40;30.00;101231.75;1730271;81;21410;-81
2022/04/22 09:28:33;;;;;;;2.42;2.33;;;;;;;23.41;28.96;101226.75;1733129;81;20848;-83
2022/04/22 09:31:04;;;;;;;5.22;3.17;;;;;;;23.37;29.54;101227.56;1739251;82;20971;-82
2022/04/22 09:33:44;;;;;;;4.70;3.70;;;;;;;23.45;29.98;101224.56;1739083;82;21504;-83
2022/04/22 09:44:15;;;;;;;4.70;4.40;;;;;;;23.07;32.61;101224.89;1739655;82;21943;-81
2022/04/22 09:46:42;;;;;;;4.05;3.75;;;;;;;23.16;32.63;101225.77;1739309;82;21040;-82
2022/04/22 09:49:09;;;;;;;4.05;3.83;;;;;;;23.26;32.06;101232.37;1739731;82;21018;-83
2022/04/22 09:51:36;;;;;;;4.12;3.72;;;;;;;23.33;32.47;101225.36;1739451;82;20891;-82
2022/04/22 09:54:06;;;;;;;4.20;3.80;;;;;;;23.37;32.45;101224.88;1739430;82;20935;-84
2022/04/22 09:56:35;;;;;;;3.50;3.20;;;;;;;23.52;32.82;101221.58;1739434;82;20867;-81
2022/04/22 09:59:23;;;;;;;5.20;3.20;;;;;;;23.81;30.97;101218.50;1739366;82;20950;-83
2022/04/22 10:01:51;;;;;;;2.20;2.10;;;;;;;23.98;29.36;101223.41;1739299;82;20963;-82
2022/04/22 10:04:21;;;;;;;3.20;3.00;;;;;;;24.12;28.55;101220.09;1739481;82;20986;-83
2022/04/22 10:06:49;;;;;;;3.92;3.05;;;;;;;24.14;28.87;101215.38;1739171;82;21057;-84
2022/04/22 10:09:16;;;;;;;3.45;2.85;;;;;;;24.15;29.71;101219.74;1739350;82;21194;-85
2022/04/22 10:11:47;;;;;;;2.80;2.45;;;;;;;24.18;29.95;101216.72;1739057;82;20880;-84
2022/04/22 10:14:15;;;;;;;3.12;2.92;;;;;;;24.26;29.96;101212.39;1739095;82;21341;-84
2022/04/22 10:16:43;;;;;;;3.17;2.98;;;;;;;24.52;28.75;101209.06;1739177;82;20911;-82
2022/04/22 10:19:12;;;;;;;3.02;2.83;;;;;;;24.80;29.04;101212.18;1739329;82;21447;-81
2022/04/22 10:21:39;;;;;;;3.83;2.87;;;;;;;25.01;28.39;101215.67;1739618;82;21239;-81
2022/04/22 10:24:06;;;;;;;3.70;3.40;;;;;;;25.23;28.37;101221.31;1739491;82;20884;-81
2022/04/22 10:26:34;;;;;;;2.92;2.72;;;;;;;25.43;28.11;101211.85;1739109;82;20966;-81
2022/04/22 10:29:09;;;;;;;3.27;3.08;;;;;;;25.44;27.95;101214.85;1738945;81;20896;-81
2022/04/22 10:31:31;;;;;;;5.75;5.35;;;;;;;25.11;27.94;101208.75;1711112;82;20962;-81
2022/04/22 10:34:06;;;;;;;4.20;3.90;;;;;;;24.82;27.75;101210.17;1739300;82;21021;-81
2022/04/22 10:36:35;;;;;;;3.77;3.50;;;;;;;24.77;27.56;101213.88;1739998;82;20864;-81
2022/04/22 10:39:01;;;;;;;3.85;3.45;;;;;;;24.37;27.44;101218.24;1739504;82;20985;-82
2022/04/22 10:41:28;;;;;;;3.85;3.60;;;;;;;24.14;29.54;101211.35;1739550;82;20959;-83
2022/04/22 10:49:45;;;;;;;3.27;3.08;;;;;;;24.52;28.46;101214.42;1739422;82;21026;-84
2022/04/22 10:52:15;;;;;;;3.27;3.00;;;;;;;24.72;29.01;101212.70;1739125;82;21662;-85
2022/04/22 10:55:00;;;;;;;7.15;3.60;;;;;;;24.77;28.40;101208.52;1739344;82;21492;-84
2022/04/22 10:57:31;;;;;;;4.17;3.17;;;;;;;24.77;28.86;101207.17;1739366;82;21416;-85
2022/04/22 11:00:17;;;;;;;3.30;3.00;;;;;;;24.65;28.54;101196.96;1739138;82;21117;-82
2022/04/22 11:02:46;;;;;;;6.87;3.37;;;;;;;24.38;27.37;101195.78;1739461;82;20895;-81
2022/04/22 11:05:33;;;;;;;3.35;3.05;;;;;;;23.89;27.74;101195.76;1739769;82;21412;-82
2022/04/22 11:08:01;;;;;;;3.83;3.52;;;;;;;23.42;29.23;101190.10;1739085;82;20955;-81
2022/04/22 11:10:52;;;;;;;3.67;3.37;;;;;;;22.90;29.32;101192.32;1739307;82;20911;-81
2022/04/22 11:13:35;;;;;;;3.62;3.33;;;;;;;22.58;29.75;101189.80;1739339;82;21085;-81
2022/04/22 11:16:23;;;;;;;3.75;3.37;;;;;;;22.44;30.34;101183.19;1712348;82;20908;-81
2022/04/22 11:19:21;;;;;;;6.55;3.10;;;;;;;22.52;30.61;101176.58;1739251;82;21034;-83
2022/04/22 11:21:55;;;;;;;3.77;3.47;;;;;;;22.70;31.40;101177.86;1740638;82;20994;-81
2022/04/22 11:24:27;;;;;;;3.30;3.05;;;;;;;22.69;29.56;101172.66;1739702;82;25554;-83
2022/04/22 11:27:11;;;;;;;6.03;3.95;;;;;;;22.44;29.64;101173.00;1737301;82;21229;-82
2022/04/22 11:29:40;;;;;;;5.17;3.52;;;;;;;22.09;29.89;101176.02;1737418;82;21007;-81
2022/04/22 11:32:18;;;;;;;3.98;3.67;;;;;;;21.75;30.41;101177.22;1736161;82;20916;-81
2022/04/22 11:35:18;;;;;;;4.67;3.80;;;;;;;21.48;29.84;101166.42;1736095;82;20956;-82
2022/04/22 11:37:45;;;;;;;4.87;4.10;;;;;;;21.11;31.11;101170.44;1736156;82;21295;-81
2022/04/22 11:40:17;;;;;;;4.42;4.00;;;;;;;20.84;30.84;101171.26;1707254;82;21089;-82
2022/04/22 11:42:45;;;;;;;;;;;;;;;20.66;32.09;101178.67;1705893;84;20891;-81
2022/04/22 11:45:14;;;;;;;5.05;4.15;;;;;;;20.46;33.46;101182.33;1674030;85;20101;-79
2022/04/22 11:47:43;;;;;;;4.10;3.70;;;;;;;20.23;33.95;101174.65;1674283;85;20989;-81
2022/04/22 11:50:19;;;;;;;4.67;4.28;;;;;;;20.00;33.78;101171.41;1673987;85;21514;-82
2022/04/22 11:52:56;;;;;;;4.78;4.37;;;;;;;19.79;34.00;101169.39;1675384;85;21160;-79
2022/04/22 11:55:24;;;;;;;5.87;3.52;;;;;;;19.58;34.55;101176.09;1676930;84;20946;-79
2022/04/22 11:57:50;;;;;;;5.53;4.05;;;;;;;19.40;34.92;101173.26;1676641;84;20930;-78
2022/04/22 12:05:51;;;;;;;8.80;5.60;;;;;;;18.70;35.94;101176.20;1673692;84;20918;-81
2022/04/22 12:08:19;;;;;;;7.15;6.25;;;;;;;18.41;37.21;101171.09;1673658;85;20997;-80
2022/04/22 12:10:48;;;;;;;7.85;6.72;;;;;;;18.21;37.18;101162.14;1673627;84;21435;-81
2022/04/22 12:13:16;;;;;;;8.53;7.08;;;;;;;18.08;37.62;101164.13;1673606;84;20903;-81
2022/04/22 12:15:48;;;;;;;4.87;4.47;;;;;;;17.95;38.48;101160.81;1673630;84;21368;-79
2022/04/22 12:18:33;;;;;;;6.55;5.45;;;;;;;17.84;38.57;101160.36;1673615;84;21264;-80
2022/04/22 12:21:06;;;;;;;10.65;8.88;;;;;;;17.80;38.88;101164.20;1674997;85;21014;-81
2022/04/22 12:23:41;;;;;;;6.30;5.05;;;;;;;17.76;38.64;101159.64;1717024;83;21483;-83
2022/04/22 12:26:22;;;;;;;6.72;5.47;;;;;;;17.69;38.78;101159.77;1703439;84;21514;-81
2022/04/22 12:29:15;;;;;;;8.50;5.37;;;;;;;17.62;38.76;101153.28;1703429;84;20986;-83
2022/04/22 12:31:47;;;;;;;6.05;5.03;;;;;;;17.53;39.30;101151.38;1704063;84;21204;-82
2022/04/22 12:34:15;;;;;;;6.12;5.55;;;;;;;17.55;39.13;101152.09;1703638;84;20939;-82
2022/04/22 12:36:55;;;;;;;5.80;4.87;;;;;;;17.63;39.69;101151.46;1703559;84;20962;-81
2022/04/22 12:39:42;;;;;;;5.00;4.60;;;;;;;17.67;39.62;101144.95;1703616;84;20954;-84
2022/04/22 12:42:22;;;;;;;8.63;5.65;;;;;;;17.72;39.61;101146.27;1703627;84;21042;-81
2022/04/22 12:53:52;;;;;;;6.85;5.15;;;;;;;17.63;39.47;101155.44;1703759;84;20943;-81
2022/04/22 12:56:26;;;;;;;5.37;4.87;;;;;;;17.55;39.36;101154.26;1675783;84;21472;-81